sensor_id;sensor_type;location;lat;lon;timestamp;P1;durP1;ratioP1;P2;durP2;ratioP2
62693;SDS011;48759;52.544;13.418;2023-05-07T00:02:14;15.90;;;13.33;;
62693;SDS011;48759;52.544;13.418;2023-05-07T00:04:42;16.33;;;13.50;;
62693;SDS011;48759;52.544;13.418;2023-05-07T00:07:09;19.47;;;12.37;;
62693;SDS011;48759;52.544;13.418;2023-05-07T00:09:37;20.33;;;14.40;;
62693;SDS011;48759;52.544;13.418;2023-05-07T00:12:05;17.13;;;12.83;;
62693;SDS011;48759;52.544;13.418;2023-05-07T00:14:33;21.17;;;13.43;;
62693;SDS011;48759;52.544;13.418;2023-05-07T00:17:02;16.77;;;13.43;;
62693;SDS011;48759;52.544;13.418;2023-05-07T00:19:30;18.33;;;13.90;;
62693;SDS011;48759;52.544;13.418;2023-05-07T00:21:57;16.17;;;13.57;;
62693;SDS011;48759;52.544;13.418;2023-05-07T00:24:24;17.30;;;12.90;;
62693;SDS011;48759;52.544;13.418;2023-05-07T00:26:53;17.50;;;13.50;;
62693;SDS011;48759;52.544;13.418;2023-05-07T00:29:21;16.87;;;12.40;;
62693;SDS011;48759;52.544;13.418;2023-05-07T00:31:48;16.50;;;13.67;;
62693;SDS011;48759;52.544;13.418;2023-05-07T00:34:16;15.40;;;12.77;;
62693;SDS011;48759;52.544;13.418;2023-05-07T00:36:43;14.80;;;12.13;;
62693;SDS011;48759;52.544;13.418;2023-05-07T00:39:11;14.50;;;12.60;;
62693;SDS011;48759;52.544;13.418;2023-05-07T00:41:41;16.47;;;11.33;;
62693;SDS011;48759;52.544;13.418;2023-05-07T00:44:09;14.53;;;11.60;;
62693;SDS011;48759;52.544;13.418;2023-05-07T00:46:37;14.70;;;12.40;;
62693;SDS011;48759;52.544;13.418;2023-05-07T00:49:04;16.20;;;13.50;;
62693;SDS011;48759;52.544;13.418;2023-05-07T00:51:33;17.60;;;15.20;;
62693;SDS011;48759;52.544;13.418;2023-05-07T00:54:00;19.67;;;13.87;;
62693;SDS011;48759;52.544;13.418;2023-05-07T00:56:29;18.50;;;13.40;;
62693;SDS011;48759;52.544;13.418;2023-05-07T00:58:56;19.10;;;13.57;;
62693;SDS011;48759;52.544;13.418;2023-05-07T01:01:28;15.13;;;13.53;;
62693;SDS011;48759;52.544;13.418;2023-05-07T01:03:56;16.90;;;14.27;;
62693;SDS011;48759;52.544;13.418;2023-05-07T01:06:23;17.03;;;14.17;;
62693;SDS011;48759;52.544;13.418;2023-05-07T01:08:52;15.83;;;13.10;;
62693;SDS011;48759;52.544;13.418;2023-05-07T01:11:22;18.70;;;12.60;;
62693;SDS011;48759;52.544;13.418;2023-05-07T01:13:51;16.77;;;13.37;;
62693;SDS011;48759;52.544;13.418;2023-05-07T01:16:20;16.40;;;12.50;;
62693;SDS011;48759;52.544;13.418;2023-05-07T01:18:52;17.73;;;14.50;;
62693;SDS011;48759;52.544;13.418;2023-05-07T01:21:20;16.93;;;15.13;;
62693;SDS011;48759;52.544;13.418;2023-05-07T01:23:56;24.83;;;18.57;;
62693;SDS011;48759;52.544;13.418;2023-05-07T01:26:25;30.10;;;19.27;;
62693;SDS011;48759;52.544;13.418;2023-05-07T01:28:52;21.20;;;15.87;;
62693;SDS011;48759;52.544;13.418;2023-05-07T01:31:18;20.70;;;15.90;;
62693;SDS011;48759;52.544;13.418;2023-05-07T01:33:48;16.43;;;14.70;;
62693;SDS011;48759;52.544;13.418;2023-05-07T01:36:18;19.53;;;14.33;;
62693;SDS011;48759;52.544;13.418;2023-05-07T01:38:48;21.70;;;14.80;;
62693;SDS011;48759;52.544;13.418;2023-05-07T01:41:18;20.07;;;15.40;;
62693;SDS011;48759;52.544;13.418;2023-05-07T01:43:46;15.57;;;12.77;;
62693;SDS011;48759;52.544;13.418;2023-05-07T01:46:16;16.57;;;14.07;;
62693;SDS011;48759;52.544;13.418;2023-05-07T01:48:44;17.20;;;13.13;;
62693;SDS011;48759;52.544;13.418;2023-05-07T01:51:11;25.23;;;13.53;;
62693;SDS011;48759;52.544;13.418;2023-05-07T01:53:38;15.33;;;11.87;;
62693;SDS011;48759;52.544;13.418;2023-05-07T01:56:07;16.50;;;12.60;;
62693;SDS011;48759;52.544;13.418;2023-05-07T01:58:35;14.03;;;12.43;;
62693;SDS011;48759;52.544;13.418;2023-05-07T02:01:02;15.70;;;13.27;;
62693;SDS011;48759;52.544;13.418;2023-05-07T02:03:29;17.10;;;14.27;;
62693;SDS011;48759;52.544;13.418;2023-05-07T02:05:56;13.97;;;12.60;;
62693;SDS011;48759;52.544;13.418;2023-05-07T02:08:23;17.57;;;15.67;;
62693;SDS011;48759;52.544;13.418;2023-05-07T02:10:49;16.60;;;13.90;;
62693;SDS011;48759;52.544;13.418;2023-05-07T02:13:16;15.70;;;13.10;;
62693;SDS011;48759;52.544;13.418;2023-05-07T02:15:50;15.93;;;13.23;;
62693;SDS011;48759;52.544;13.418;2023-05-07T02:18:17;14.93;;;13.33;;
62693;SDS011;48759;52.544;13.418;2023-05-07T02:20:44;15.30;;;12.30;;
62693;SDS011;48759;52.544;13.418;2023-05-07T02:23:11;17.03;;;13.63;;
62693;SDS011;48759;52.544;13.418;2023-05-07T02:25:37;17.73;;;13.13;;
62693;SDS011;48759;52.544;13.418;2023-05-07T02:28:05;15.17;;;12.87;;
62693;SDS011;48759;52.544;13.418;2023-05-07T02:30:31;16.97;;;12.10;;
62693;SDS011;48759;52.544;13.418;2023-05-07T02:33:01;17.37;;;12.30;;
62693;SDS011;48759;52.544;13.418;2023-05-07T02:35:28;13.30;;;11.53;;
62693;SDS011;48759;52.544;13.418;2023-05-07T02:37:55;15.43;;;11.60;;
62693;SDS011;48759;52.544;13.418;2023-05-07T02:40:22;19.23;;;13.43;;
62693;SDS011;48759;52.544;13.418;2023-05-07T02:42:48;17.33;;;12.80;;
62693;SDS011;48759;52.544;13.418;2023-05-07T02:45:18;17.90;;;12.23;;
62693;SDS011;48759;52.544;13.418;2023-05-07T02:47:45;14.83;;;12.40;;
62693;SDS011;48759;52.544;13.418;2023-05-07T02:50:14;15.10;;;12.80;;
62693;SDS011;48759;52.544;13.418;2023-05-07T02:52:41;15.37;;;11.70;;
62693;SDS011;48759;52.544;13.418;2023-05-07T02:55:09;13.97;;;12.20;;
62693;SDS011;48759;52.544;13.418;2023-05-07T02:57:36;14.40;;;12.20;;
62693;SDS011;48759;52.544;13.418;2023-05-07T03:00:10;12.47;;;11.17;;
62693;SDS011;48759;52.544;13.418;2023-05-07T03:02:38;15.73;;;10.87;;
62693;SDS011;48759;52.544;13.418;2023-05-07T03:05:06;13.17;;;11.23;;
62693;SDS011;48759;52.544;13.418;2023-05-07T03:07:35;17.37;;;10.93;;
62693;SDS011;48759;52.544;13.418;2023-05-07T03:10:03;14.17;;;10.80;;
62693;SDS011;48759;52.544;13.418;2023-05-07T03:12:30;14.47;;;11.70;;
62693;SDS011;48759;52.544;13.418;2023-05-07T03:14:57;14.40;;;11.10;;
62693;SDS011;48759;52.544;13.418;2023-05-07T03:17:23;14.30;;;11.97;;
62693;SDS011;48759;52.544;13.418;2023-05-07T03:19:50;16.03;;;11.40;;
62693;SDS011;48759;52.544;13.418;2023-05-07T03:22:17;15.67;;;10.57;;
62693;SDS011;48759;52.544;13.418;2023-05-07T03:24:45;13.10;;;10.30;;
62693;SDS011;48759;52.544;13.418;2023-05-07T03:27:13;20.87;;;13.27;;
62693;SDS011;48759;52.544;13.418;2023-05-07T03:29:41;13.33;;;11.40;;
62693;SDS011;48759;52.544;13.418;2023-05-07T03:32:10;12.20;;;10.97;;
62693;SDS011;48759;52.544;13.418;2023-05-07T03:34:37;14.10;;;10.90;;
62693;SDS011;48759;52.544;13.418;2023-05-07T03:37:04;14.47;;;10.80;;
62693;SDS011;48759;52.544;13.418;2023-05-07T03:39:31;11.90;;;10.40;;
62693;SDS011;48759;52.544;13.418;2023-05-07T03:42:00;11.50;;;10.40;;
62693;SDS011;48759;52.544;13.418;2023-05-07T03:44:27;12.53;;;10.70;;
62693;SDS011;48759;52.544;13.418;2023-05-07T03:46:55;16.33;;;11.80;;
62693;SDS011;48759;52.544;13.418;2023-05-07T03:49:24;12.00;;;10.13;;
62693;SDS011;48759;52.544;13.418;2023-05-07T03:51:51;14.53;;;11.10;;
62693;SDS011;48759;52.544;13.418;2023-05-07T03:54:18;13.03;;;10.90;;
62693;SDS011;48759;52.544;13.418;2023-05-07T03:56:45;11.47;;;10.20;;
62693;SDS011;48759;52.544;13.418;2023-05-07T03:59:13;17.60;;;10.20;;
62693;SDS011;48759;52.544;13.418;2023-05-07T04:01:40;21.93;;;10.87;;
62693;SDS011;48759;52.544;13.418;2023-05-07T04:04:06;12.83;;;10.53;;
62693;SDS011;48759;52.544;13.418;2023-05-07T04:06:33;12.03;;;10.40;;
62693;SDS011;48759;52.544;13.418;2023-05-07T04:09:00;13.47;;;10.87;;
62693;SDS011;48759;52.544;13.418;2023-05-07T04:11:35;14.23;;;10.10;;
62693;SDS011;48759;52.544;13.418;2023-05-07T04:14:02;11.73;;;10.00;;
62693;SDS011;48759;52.544;13.418;2023-05-07T04:16:31;13.70;;;10.50;;
62693;SDS011;48759;52.544;13.418;2023-05-07T04:18:59;12.97;;;10.20;;
62693;SDS011;48759;52.544;13.418;2023-05-07T04:21:30;13.03;;;10.33;;
62693;SDS011;48759;52.544;13.418;2023-05-07T04:24:04;12.33;;;9.23;;
62693;SDS011;48759;52.544;13.418;2023-05-07T04:26:37;11.13;;;9.50;;
62693;SDS011;48759;52.544;13.418;2023-05-07T04:29:06;14.20;;;10.33;;
62693;SDS011;48759;52.544;13.418;2023-05-07T04:31:39;12.40;;;9.20;;
62693;SDS011;48759;52.544;13.418;2023-05-07T04:34:07;16.70;;;10.20;;
62693;SDS011;48759;52.544;13.418;2023-05-07T04:36:34;9.93;;;8.60;;
62693;SDS011;48759;52.544;13.418;2023-05-07T04:39:02;11.00;;;9.70;;
62693;SDS011;48759;52.544;13.418;2023-05-07T04:41:35;12.77;;;9.07;;
62693;SDS011;48759;52.544;13.418;2023-05-07T04:44:08;11.77;;;8.80;;
62693;SDS011;48759;52.544;13.418;2023-05-07T04:46:39;12.33;;;9.10;;
62693;SDS011;48759;52.544;13.418;2023-05-07T04:49:08;10.00;;;8.53;;
62693;SDS011;48759;52.544;13.418;2023-05-07T04:51:39;11.07;;;8.27;;
62693;SDS011;48759;52.544;13.418;2023-05-07T04:54:07;11.17;;;9.10;;
62693;SDS011;48759;52.544;13.418;2023-05-07T04:56:38;10.17;;;8.90;;
62693;SDS011;48759;52.544;13.418;2023-05-07T04:59:10;10.20;;;8.43;;
62693;SDS011;48759;52.544;13.418;2023-05-07T05:01:38;10.37;;;8.00;;
62693;SDS011;48759;52.544;13.418;2023-05-07T05:04:16;9.40;;;8.50;;
62693;SDS011;48759;52.544;13.418;2023-05-07T05:06:50;9.90;;;7.60;;
62693;SDS011;48759;52.544;13.418;2023-05-07T05:09:19;8.67;;;7.77;;
62693;SDS011;48759;52.544;13.418;2023-05-07T05:11:46;9.77;;;7.40;;
62693;SDS011;48759;52.544;13.418;2023-05-07T05:14:14;13.00;;;8.90;;
62693;SDS011;48759;52.544;13.418;2023-05-07T05:16:43;9.60;;;8.00;;
62693;SDS011;48759;52.544;13.418;2023-05-07T05:19:13;7.37;;;6.60;;
62693;SDS011;48759;52.544;13.418;2023-05-07T05:21:45;10.67;;;8.37;;
62693;SDS011;48759;52.544;13.418;2023-05-07T05:24:24;8.40;;;7.60;;
62693;SDS011;48759;52.544;13.418;2023-05-07T05:26:56;11.33;;;8.27;;
62693;SDS011;48759;52.544;13.418;2023-05-07T05:29:25;12.87;;;7.63;;
62693;SDS011;48759;52.544;13.418;2023-05-07T05:31:54;14.13;;;8.87;;
62693;SDS011;48759;52.544;13.418;2023-05-07T05:34:21;11.00;;;8.80;;
62693;SDS011;48759;52.544;13.418;2023-05-07T05:36:48;10.33;;;7.90;;
62693;SDS011;48759;52.544;13.418;2023-05-07T05:39:18;10.13;;;8.77;;
62693;SDS011;48759;52.544;13.418;2023-05-07T05:41:47;10.57;;;7.87;;
62693;SDS011;48759;52.544;13.418;2023-05-07T05:44:15;9.80;;;8.50;;
62693;SDS011;48759;52.544;13.418;2023-05-07T05:46:45;10.20;;;8.10;;
62693;SDS011;48759;52.544;13.418;2023-05-07T05:49:16;8.90;;;6.83;;
62693;SDS011;48759;52.544;13.418;2023-05-07T05:51:43;9.20;;;8.13;;
62693;SDS011;48759;52.544;13.418;2023-05-07T05:54:10;8.97;;;8.03;;
62693;SDS011;48759;52.544;13.418;2023-05-07T05:56:38;9.23;;;8.30;;
62693;SDS011;48759;52.544;13.418;2023-05-07T05:59:05;9.07;;;7.90;;
62693;SDS011;48759;52.544;13.418;2023-05-07T06:01:32;12.80;;;8.73;;
62693;SDS011;48759;52.544;13.418;2023-05-07T06:04:00;9.70;;;8.33;;
62693;SDS011;48759;52.544;13.418;2023-05-07T06:06:31;10.10;;;8.17;;
62693;SDS011;48759;52.544;13.418;2023-05-07T06:08:58;8.27;;;7.47;;
62693;SDS011;48759;52.544;13.418;2023-05-07T06:11:25;8.90;;;8.00;;
62693;SDS011;48759;52.544;13.418;2023-05-07T06:13:52;12.33;;;8.10;;
62693;SDS011;48759;52.544;13.418;2023-05-07T06:16:20;10.83;;;8.23;;
62693;SDS011;48759;52.544;13.418;2023-05-07T06:18:47;10.80;;;8.27;;
62693;SDS011;48759;52.544;13.418;2023-05-07T06:21:15;7.90;;;7.10;;
62693;SDS011;48759;52.544;13.418;2023-05-07T06:23:44;8.40;;;7.53;;
62693;SDS011;48759;52.544;13.418;2023-05-07T06:26:12;11.70;;;7.97;;
62693;SDS011;48759;52.544;13.418;2023-05-07T06:28:44;8.83;;;7.90;;
62693;SDS011;48759;52.544;13.418;2023-05-07T06:31:13;13.63;;;7.67;;
62693;SDS011;48759;52.544;13.418;2023-05-07T06:33:44;9.43;;;7.90;;
62693;SDS011;48759;52.544;13.418;2023-05-07T06:36:13;10.30;;;8.30;;
62693;SDS011;48759;52.544;13.418;2023-05-07T06:38:41;11.80;;;7.83;;
62693;SDS011;48759;52.544;13.418;2023-05-07T06:41:13;8.57;;;7.53;;
62693;SDS011;48759;52.544;13.418;2023-05-07T06:43:43;8.67;;;7.10;;
62693;SDS011;48759;52.544;13.418;2023-05-07T06:46:10;8.27;;;7.37;;
62693;SDS011;48759;52.544;13.418;2023-05-07T06:48:40;8.60;;;7.30;;
62693;SDS011;48759;52.544;13.418;2023-05-07T06:51:06;9.80;;;6.80;;
62693;SDS011;48759;52.544;13.418;2023-05-07T06:53:34;11.97;;;6.67;;
62693;SDS011;48759;52.544;13.418;2023-05-07T06:56:03;9.60;;;6.70;;
62693;SDS011;48759;52.544;13.418;2023-05-07T06:58:32;7.70;;;6.50;;
62693;SDS011;48759;52.544;13.418;2023-05-07T07:01:00;8.87;;;7.17;;
62693;SDS011;48759;52.544;13.418;2023-05-07T07:03:27;7.23;;;5.87;;
62693;SDS011;48759;52.544;13.418;2023-05-07T07:05:55;7.90;;;7.00;;
62693;SDS011;48759;52.544;13.418;2023-05-07T07:08:23;6.43;;;5.73;;
62693;SDS011;48759;52.544;13.418;2023-05-07T07:10:50;11.43;;;7.13;;
62693;SDS011;48759;52.544;13.418;2023-05-07T07:13:19;9.07;;;6.93;;
62693;SDS011;48759;52.544;13.418;2023-05-07T07:15:48;7.63;;;6.70;;
62693;SDS011;48759;52.544;13.418;2023-05-07T07:18:17;10.30;;;5.80;;
62693;SDS011;48759;52.544;13.418;2023-05-07T07:20:44;8.13;;;6.20;;
62693;SDS011;48759;52.544;13.418;2023-05-07T07:23:12;7.20;;;5.77;;
62693;SDS011;48759;52.544;13.418;2023-05-07T07:25:40;9.83;;;5.70;;
62693;SDS011;48759;52.544;13.418;2023-05-07T07:28:08;9.27;;;5.70;;
62693;SDS011;48759;52.544;13.418;2023-05-07T07:30:35;6.10;;;5.20;;
62693;SDS011;48759;52.544;13.418;2023-05-07T07:33:09;7.10;;;5.70;;
62693;SDS011;48759;52.544;13.418;2023-05-07T07:35:43;6.20;;;5.40;;
62693;SDS011;48759;52.544;13.418;2023-05-07T07:38:10;6.97;;;6.27;;
62693;SDS011;48759;52.544;13.418;2023-05-07T07:40:37;6.70;;;5.37;;
62693;SDS011;48759;52.544;13.418;2023-05-07T07:43:04;7.73;;;5.57;;
62693;SDS011;48759;52.544;13.418;2023-05-07T07:45:31;8.13;;;5.70;;
62693;SDS011;48759;52.544;13.418;2023-05-07T07:47:57;8.97;;;6.07;;
62693;SDS011;48759;52.544;13.418;2023-05-07T07:50:26;6.83;;;5.40;;
62693;SDS011;48759;52.544;13.418;2023-05-07T07:52:53;6.10;;;5.33;;
62693;SDS011;48759;52.544;13.418;2023-05-07T07:55:20;9.63;;;4.80;;
62693;SDS011;48759;52.544;13.418;2023-05-07T07:57:48;11.57;;;5.00;;
62693;SDS011;48759;52.544;13.418;2023-05-07T08:00:15;9.80;;;5.53;;
62693;SDS011;48759;52.544;13.418;2023-05-07T08:02:43;5.70;;;4.77;;
62693;SDS011;48759;52.544;13.418;2023-05-07T08:05:11;5.97;;;4.90;;
62693;SDS011;48759;52.544;13.418;2023-05-07T08:07:39;6.47;;;4.60;;
62693;SDS011;48759;52.544;13.418;2023-05-07T08:10:06;6.73;;;5.10;;
62693;SDS011;48759;52.544;13.418;2023-05-07T08:12:33;4.57;;;3.93;;
62693;SDS011;48759;52.544;13.418;2023-05-07T08:15:11;9.83;;;4.90;;
62693;SDS011;48759;52.544;13.418;2023-05-07T08:17:58;4.43;;;4.03;;
62693;SDS011;48759;52.544;13.418;2023-05-07T08:21:15;6.07;;;4.20;;
62693;SDS011;48759;52.544;13.418;2023-05-07T08:24:45;4.33;;;3.93;;
62693;SDS011;48759;52.544;13.418;2023-05-07T08:27:30;4.53;;;4.13;;
62693;SDS011;48759;52.544;13.418;2023-05-07T08:30:01;5.77;;;4.27;;
62693;SDS011;48759;52.544;13.418;2023-05-07T08:32:31;6.73;;;4.57;;
62693;SDS011;48759;52.544;13.418;2023-05-07T08:35:13;4.70;;;3.80;;
62693;SDS011;48759;52.544;13.418;2023-05-07T08:38:00;5.30;;;4.57;;
62693;SDS011;48759;52.544;13.418;2023-05-07T08:44:04;4.67;;;4.20;;
62693;SDS011;48759;52.544;13.418;2023-05-07T08:46:50;4.23;;;3.80;;
62693;SDS011;48759;52.544;13.418;2023-05-07T08:49:24;6.43;;;4.73;;
62693;SDS011;48759;52.544;13.418;2023-05-07T08:51:58;4.73;;;4.10;;
62693;SDS011;48759;52.544;13.418;2023-05-07T08:54:32;5.03;;;4.53;;
62693;SDS011;48759;52.544;13.418;2023-05-07T08:57:20;9.23;;;4.30;;
62693;SDS011;48759;52.544;13.418;2023-05-07T08:59:54;4.27;;;3.80;;
62693;SDS011;48759;52.544;13.418;2023-05-07T09:02:34;4.47;;;4.07;;
62693;SDS011;48759;52.544;13.418;2023-05-07T09:05:34;5.90;;;4.77;;
62693;SDS011;48759;52.544;13.418;2023-05-07T09:08:09;4.53;;;3.93;;
62693;SDS011;48759;52.544;13.418;2023-05-07T09:11:04;3.97;;;3.33;;
62693;SDS011;48759;52.544;13.418;2023-05-07T09:13:36;9.30;;;4.07;;
62693;SDS011;48759;52.544;13.418;2023-05-07T09:16:17;4.70;;;3.70;;
62693;SDS011;48759;52.544;13.418;2023-05-07T09:18:58;4.57;;;3.60;;
62693;SDS011;48759;52.544;13.418;2023-05-07T09:21:38;4.17;;;3.77;;
62693;SDS011;48759;52.544;13.418;2023-05-07T09:24:15;4.50;;;3.97;;
62693;SDS011;48759;52.544;13.418;2023-05-07T09:26:44;6.80;;;4.23;;
62693;SDS011;48759;52.544;13.418;2023-05-07T09:29:16;3.90;;;3.60;;
62693;SDS011;48759;52.544;13.418;2023-05-07T09:31:46;4.17;;;3.77;;
62693;SDS011;48759;52.544;13.418;2023-05-07T09:34:31;4.47;;;4.07;;
62693;SDS011;48759;52.544;13.418;2023-05-07T09:37:31;4.73;;;3.70;;
62693;SDS011;48759;52.544;13.418;2023-05-07T09:40:36;3.70;;;3.40;;
62693;SDS011;48759;52.544;13.418;2023-05-07T09:43:14;4.10;;;3.70;;
62693;SDS011;48759;52.544;13.418;2023-05-07T09:45:56;8.40;;;3.40;;
62693;SDS011;48759;52.544;13.418;2023-05-07T09:48:40;4.10;;;3.70;;
62693;SDS011;48759;52.544;13.418;2023-05-07T09:51:13;6.33;;;3.30;;
62693;SDS011;48759;52.544;13.418;2023-05-07T09:53:52;5.40;;;3.73;;
62693;SDS011;48759;52.544;13.418;2023-05-07T09:56:22;6.10;;;4.13;;
62693;SDS011;48759;52.544;13.418;2023-05-07T09:58:52;3.30;;;3.00;;
62693;SDS011;48759;52.544;13.418;2023-05-07T10:01:44;5.73;;;4.00;;
62693;SDS011;48759;52.544;13.418;2023-05-07T10:04:22;4.13;;;3.47;;
62693;SDS011;48759;52.544;13.418;2023-05-07T10:06:52;3.67;;;3.10;;
62693;SDS011;48759;52.544;13.418;2023-05-07T10:09:28;3.30;;;2.70;;
62693;SDS011;48759;52.544;13.418;2023-05-07T10:11:57;2.90;;;2.60;;
62693;SDS011;48759;52.544;13.418;2023-05-07T10:14:26;3.00;;;2.80;;
62693;SDS011;48759;52.544;13.418;2023-05-07T10:16:55;4.60;;;2.90;;
62693;SDS011;48759;52.544;13.418;2023-05-07T10:19:25;3.20;;;2.80;;
62693;SDS011;48759;52.544;13.418;2023-05-07T10:21:55;3.03;;;2.73;;
62693;SDS011;48759;52.544;13.418;2023-05-07T10:24:35;3.50;;;3.20;;
62693;SDS011;48759;52.544;13.418;2023-05-07T10:27:11;2.90;;;2.50;;
62693;SDS011;48759;52.544;13.418;2023-05-07T10:29:49;3.33;;;2.50;;
62693;SDS011;48759;52.544;13.418;2023-05-07T10:32:29;3.27;;;3.00;;
62693;SDS011;48759;52.544;13.418;2023-05-07T10:35:09;2.90;;;2.60;;
62693;SDS011;48759;52.544;13.418;2023-05-07T10:37:40;3.70;;;3.40;;
62693;SDS011;48759;52.544;13.418;2023-05-07T10:40:09;14.17;;;12.70;;
62693;SDS011;48759;52.544;13.418;2023-05-07T10:42:52;5.60;;;4.30;;
62693;SDS011;48759;52.544;13.418;2023-05-07T10:45:31;4.13;;;3.40;;
62693;SDS011;48759;52.544;13.418;2023-05-07T10:48:11;11.70;;;8.40;;
62693;SDS011;48759;52.544;13.418;2023-05-07T10:50:40;9.80;;;6.80;;
62693;SDS011;48759;52.544;13.418;2023-05-07T10:53:21;7.77;;;5.47;;
62693;SDS011;48759;52.544;13.418;2023-05-07T10:58:55;5.00;;;4.37;;
62693;SDS011;48759;52.544;13.418;2023-05-07T11:04:33;13.10;;;4.87;;
62693;SDS011;48759;52.544;13.418;2023-05-07T11:09:56;4.97;;;4.47;;
62693;SDS011;48759;52.544;13.418;2023-05-07T11:15:37;2.17;;;2.07;;
62693;SDS011;48759;52.544;13.418;2023-05-07T11:18:11;3.20;;;2.87;;
62693;SDS011;48759;52.544;13.418;2023-05-07T11:20:46;3.40;;;3.20;;
62693;SDS011;48759;52.544;13.418;2023-05-07T11:26:24;4.83;;;2.90;;
62693;SDS011;48759;52.544;13.418;2023-05-07T11:28:51;7.57;;;3.80;;
62693;SDS011;48759;52.544;13.418;2023-05-07T11:31:27;7.03;;;5.17;;
62693;SDS011;48759;52.544;13.418;2023-05-07T11:33:55;10.10;;;6.13;;
62693;SDS011;48759;52.544;13.418;2023-05-07T11:36:23;8.97;;;3.90;;
62693;SDS011;48759;52.544;13.418;2023-05-07T11:38:52;5.87;;;3.80;;
62693;SDS011;48759;52.544;13.418;2023-05-07T11:41:20;4.27;;;2.77;;
62693;SDS011;48759;52.544;13.418;2023-05-07T11:43:54;2.70;;;2.50;;
62693;SDS011;48759;52.544;13.418;2023-05-07T11:46:22;6.60;;;3.47;;
62693;SDS011;48759;52.544;13.418;2023-05-07T11:48:51;3.10;;;2.77;;
62693;SDS011;48759;52.544;13.418;2023-05-07T11:51:19;3.73;;;3.27;;
62693;SDS011;48759;52.544;13.418;2023-05-07T11:53:46;3.13;;;2.83;;
62693;SDS011;48759;52.544;13.418;2023-05-07T11:56:14;3.60;;;2.70;;
62693;SDS011;48759;52.544;13.418;2023-05-07T11:58:44;3.30;;;3.00;;
62693;SDS011;48759;52.544;13.418;2023-05-07T12:01:12;5.43;;;3.40;;
62693;SDS011;48759;52.544;13.418;2023-05-07T12:03:40;4.53;;;3.00;;
62693;SDS011;48759;52.544;13.418;2023-05-07T12:06:09;2.50;;;2.30;;
62693;SDS011;48759;52.544;13.418;2023-05-07T12:08:37;3.57;;;2.60;;
62693;SDS011;48759;52.544;13.418;2023-05-07T12:11:06;2.97;;;2.33;;
62693;SDS011;48759;52.544;13.418;2023-05-07T12:13:36;2.50;;;2.30;;
62693;SDS011;48759;52.544;13.418;2023-05-07T12:16:06;3.10;;;2.80;;
62693;SDS011;48759;52.544;13.418;2023-05-07T12:18:34;3.60;;;2.50;;
62693;SDS011;48759;52.544;13.418;2023-05-07T12:21:03;3.53;;;3.17;;
62693;SDS011;48759;52.544;13.418;2023-05-07T12:23:31;2.60;;;2.40;;
62693;SDS011;48759;52.544;13.418;2023-05-07T12:26:01;2.77;;;2.47;;
62693;SDS011;48759;52.544;13.418;2023-05-07T12:28:29;3.87;;;2.77;;
62693;SDS011;48759;52.544;13.418;2023-05-07T12:30:56;5.10;;;2.53;;
62693;SDS011;48759;52.544;13.418;2023-05-07T12:33:26;3.43;;;2.90;;
62693;SDS011;48759;52.544;13.418;2023-05-07T12:35:54;2.60;;;2.30;;
62693;SDS011;48759;52.544;13.418;2023-05-07T12:38:22;2.63;;;2.40;;
62693;SDS011;48759;52.544;13.418;2023-05-07T12:40:50;14.17;;;2.63;;
62693;SDS011;48759;52.544;13.418;2023-05-07T12:43:19;3.40;;;2.47;;
62693;SDS011;48759;52.544;13.418;2023-05-07T12:45:48;2.90;;;2.40;;
62693;SDS011;48759;52.544;13.418;2023-05-07T12:48:17;3.60;;;2.60;;
62693;SDS011;48759;52.544;13.418;2023-05-07T12:50:46;3.30;;;2.37;;
62693;SDS011;48759;52.544;13.418;2023-05-07T12:53:15;2.57;;;2.37;;
62693;SDS011;48759;52.544;13.418;2023-05-07T12:55:43;3.00;;;2.30;;
62693;SDS011;48759;52.544;13.418;2023-05-07T12:58:17;2.70;;;2.30;;
62693;SDS011;48759;52.544;13.418;2023-05-07T13:00:45;2.97;;;2.37;;
62693;SDS011;48759;52.544;13.418;2023-05-07T13:03:20;2.73;;;2.53;;
62693;SDS011;48759;52.544;13.418;2023-05-07T13:05:50;2.50;;;2.03;;
62693;SDS011;48759;52.544;13.418;2023-05-07T13:08:27;2.37;;;2.17;;
62693;SDS011;48759;52.544;13.418;2023-05-07T13:10:56;2.37;;;2.13;;
62693;SDS011;48759;52.544;13.418;2023-05-07T13:13:23;2.33;;;2.13;;
62693;SDS011;48759;52.544;13.418;2023-05-07T13:15:50;4.03;;;2.43;;
62693;SDS011;48759;52.544;13.418;2023-05-07T13:18:17;4.07;;;2.87;;
62693;SDS011;48759;52.544;13.418;2023-05-07T13:20:44;3.70;;;3.33;;
62693;SDS011;48759;52.544;13.418;2023-05-07T13:23:12;5.20;;;2.90;;
62693;SDS011;48759;52.544;13.418;2023-05-07T13:25:38;2.50;;;2.30;;
62693;SDS011;48759;52.544;13.418;2023-05-07T13:28:07;3.77;;;2.63;;
62693;SDS011;48759;52.544;13.418;2023-05-07T13:30:39;3.70;;;2.60;;
62693;SDS011;48759;52.544;13.418;2023-05-07T13:33:08;4.53;;;2.70;;
62693;SDS011;48759;52.544;13.418;2023-05-07T13:35:35;3.17;;;2.10;;
62693;SDS011;48759;52.544;13.418;2023-05-07T13:38:03;6.07;;;2.67;;
62693;SDS011;48759;52.544;13.418;2023-05-07T13:40:35;2.80;;;2.20;;
62693;SDS011;48759;52.544;13.418;2023-05-07T13:43:05;2.43;;;2.20;;
62693;SDS011;48759;52.544;13.418;2023-05-07T13:45:33;3.93;;;2.33;;
62693;SDS011;48759;52.544;13.418;2023-05-07T13:48:03;2.87;;;2.57;;
62693;SDS011;48759;52.544;13.418;2023-05-07T13:50:30;2.20;;;2.00;;
62693;SDS011;48759;52.544;13.418;2023-05-07T13:53:03;2.47;;;2.00;;
62693;SDS011;48759;52.544;13.418;2023-05-07T13:55:31;3.27;;;2.20;;
62693;SDS011;48759;52.544;13.418;2023-05-07T13:57:59;2.33;;;2.10;;
62693;SDS011;48759;52.544;13.418;2023-05-07T14:00:33;7.70;;;2.40;;
62693;SDS011;48759;52.544;13.418;2023-05-07T14:03:01;2.30;;;2.10;;
62693;SDS011;48759;52.544;13.418;2023-05-07T14:05:30;3.20;;;2.63;;
62693;SDS011;48759;52.544;13.418;2023-05-07T14:08:00;2.63;;;2.43;;
62693;SDS011;48759;52.544;13.418;2023-05-07T14:10:31;5.00;;;3.20;;
62693;SDS011;48759;52.544;13.418;2023-05-07T14:13:00;4.47;;;2.60;;
62693;SDS011;48759;52.544;13.418;2023-05-07T14:15:35;4.67;;;2.57;;
62693;SDS011;48759;52.544;13.418;2023-05-07T14:18:06;3.70;;;2.50;;
62693;SDS011;48759;52.544;13.418;2023-05-07T14:20:33;3.00;;;2.30;;
62693;SDS011;48759;52.544;13.418;2023-05-07T14:23:02;3.93;;;2.30;;
62693;SDS011;48759;52.544;13.418;2023-05-07T14:25:30;4.63;;;2.30;;
62693;SDS011;48759;52.544;13.418;2023-05-07T14:28:06;2.30;;;2.10;;
62693;SDS011;48759;52.544;13.418;2023-05-07T14:30:35;3.10;;;2.10;;
62693;SDS011;48759;52.544;13.418;2023-05-07T14:33:05;2.70;;;2.50;;
62693;SDS011;48759;52.544;13.418;2023-05-07T14:35:33;2.50;;;2.30;;
62693;SDS011;48759;52.544;13.418;2023-05-07T14:38:00;26.47;;;2.73;;
62693;SDS011;48759;52.544;13.418;2023-05-07T14:40:28;2.83;;;2.47;;
62693;SDS011;48759;52.544;13.418;2023-05-07T14:42:57;3.47;;;3.17;;
62693;SDS011;48759;52.544;13.418;2023-05-07T14:45:38;3.27;;;2.17;;
62693;SDS011;48759;52.544;13.418;2023-05-07T14:48:05;2.33;;;2.13;;
62693;SDS011;48759;52.544;13.418;2023-05-07T14:50:34;1.90;;;1.70;;
62693;SDS011;48759;52.544;13.418;2023-05-07T14:53:02;1.90;;;1.80;;
62693;SDS011;48759;52.544;13.418;2023-05-07T14:55:29;4.70;;;2.30;;
62693;SDS011;48759;52.544;13.418;2023-05-07T14:57:59;2.40;;;2.20;;
62693;SDS011;48759;52.544;13.418;2023-05-07T15:00:26;2.43;;;2.20;;
62693;SDS011;48759;52.544;13.418;2023-05-07T15:02:54;4.30;;;2.20;;
62693;SDS011;48759;52.544;13.418;2023-05-07T15:05:27;2.73;;;2.00;;